sensor_id;sensor_type;location;lat;lon;timestamp;P1;durP1;ratioP1;P2;durP2;ratioP2
13855;SDS011;6998;53.608;9.958;2022-10-13T00:01:07;8.47;;;4.80;;
13855;SDS011;6998;53.608;9.958;2022-10-13T00:03:35;8.67;;;4.77;;
13855;SDS011;6998;53.608;9.958;2022-10-13T00:06:03;9.10;;;4.90;;
13855;SDS011;6998;53.608;9.958;2022-10-13T00:08:31;9.23;;;5.23;;
13855;SDS011;6998;53.608;9.958;2022-10-13T00:10:58;9.07;;;5.17;;
13855;SDS011;6998;53.608;9.958;2022-10-13T00:13:26;7.90;;;5.03;;
13855;SDS011;6998;53.608;9.958;2022-10-13T00:15:53;9.90;;;5.10;;
13855;SDS011;6998;53.608;9.958;2022-10-13T00:18:20;12.07;;;5.20;;
13855;SDS011;6998;53.608;9.958;2022-10-13T00:20:47;7.63;;;5.10;;
13855;SDS011;6998;53.608;9.958;2022-10-13T00:23:15;9.00;;;4.60;;
13855;SDS011;6998;53.608;9.958;2022-10-13T00:25:42;8.17;;;4.80;;
13855;SDS011;6998;53.608;9.958;2022-10-13T00:28:10;7.07;;;4.60;;
13855;SDS011;6998;53.608;9.958;2022-10-13T00:30:39;8.77;;;5.13;;
13855;SDS011;6998;53.608;9.958;2022-10-13T00:33:06;11.13;;;4.90;;
13855;SDS011;6998;53.608;9.958;2022-10-13T00:35:33;9.23;;;4.63;;
13855;SDS011;6998;53.608;9.958;2022-10-13T00:38:06;9.70;;;4.87;;
13855;SDS011;6998;53.608;9.958;2022-10-13T00:40:32;9.83;;;4.47;;
13855;SDS011;6998;53.608;9.958;2022-10-13T00:42:59;9.97;;;5.37;;
13855;SDS011;6998;53.608;9.958;2022-10-13T00:45:26;9.77;;;4.87;;
13855;SDS011;6998;53.608;9.958;2022-10-13T00:47:55;8.83;;;4.83;;
13855;SDS011;6998;53.608;9.958;2022-10-13T00:50:27;7.20;;;4.87;;
13855;SDS011;6998;53.608;9.958;2022-10-13T00:52:58;7.23;;;5.13;;
13855;SDS011;6998;53.608;9.958;2022-10-13T00:55:28;8.53;;;5.07;;
13855;SDS011;6998;53.608;9.958;2022-10-13T00:57:57;8.97;;;5.37;;
13855;SDS011;6998;53.608;9.958;2022-10-13T01:00:25;13.37;;;5.73;;
13855;SDS011;6998;53.608;9.958;2022-10-13T01:02:55;13.37;;;5.80;;
13855;SDS011;6998;53.608;9.958;2022-10-13T01:05:22;11.67;;;5.27;;
13855;SDS011;6998;53.608;9.958;2022-10-13T01:07:50;8.57;;;4.87;;
13855;SDS011;6998;53.608;9.958;2022-10-13T01:10:19;13.30;;;5.30;;
13855;SDS011;6998;53.608;9.958;2022-10-13T01:12:57;8.63;;;5.33;;
13855;SDS011;6998;53.608;9.958;2022-10-13T01:15:29;8.60;;;5.17;;
13855;SDS011;6998;53.608;9.958;2022-10-13T01:18:07;14.43;;;5.37;;
13855;SDS011;6998;53.608;9.958;2022-10-13T01:20:52;7.30;;;4.70;;
13855;SDS011;6998;53.608;9.958;2022-10-13T01:32:30;8.80;;;4.80;;
13855;SDS011;6998;53.608;9.958;2022-10-13T01:35:04;14.77;;;5.37;;
13855;SDS011;6998;53.608;9.958;2022-10-13T01:37:36;12.30;;;4.83;;
13855;SDS011;6998;53.608;9.958;2022-10-13T01:40:11;11.70;;;5.60;;
13855;SDS011;6998;53.608;9.958;2022-10-13T01:42:45;15.73;;;6.13;;
13855;SDS011;6998;53.608;9.958;2022-10-13T01:45:18;11.17;;;5.20;;
13855;SDS011;6998;53.608;9.958;2022-10-13T01:47:51;10.10;;;5.20;;
13855;SDS011;6998;53.608;9.958;2022-10-13T01:50:18;10.50;;;5.43;;
13855;SDS011;6998;53.608;9.958;2022-10-13T01:52:46;10.50;;;5.60;;
13855;SDS011;6998;53.608;9.958;2022-10-13T01:55:14;6.53;;;4.60;;
13855;SDS011;6998;53.608;9.958;2022-10-13T01:57:42;8.47;;;4.87;;
13855;SDS011;6998;53.608;9.958;2022-10-13T02:00:10;10.83;;;5.27;;
13855;SDS011;6998;53.608;9.958;2022-10-13T02:02:44;12.50;;;5.50;;
13855;SDS011;6998;53.608;9.958;2022-10-13T02:05:19;9.07;;;5.23;;
13855;SDS011;6998;53.608;9.958;2022-10-13T02:07:54;8.10;;;4.90;;
13855;SDS011;6998;53.608;9.958;2022-10-13T02:10:27;8.07;;;4.90;;
13855;SDS011;6998;53.608;9.958;2022-10-13T02:12:59;10.73;;;5.43;;
13855;SDS011;6998;53.608;9.958;2022-10-13T02:15:28;11.17;;;5.67;;
13855;SDS011;6998;53.608;9.958;2022-10-13T02:18:00;9.63;;;4.90;;
13855;SDS011;6998;53.608;9.958;2022-10-13T02:20:28;11.37;;;5.53;;
13855;SDS011;6998;53.608;9.958;2022-10-13T02:22:58;8.60;;;5.80;;
13855;SDS011;6998;53.608;9.958;2022-10-13T02:25:27;6.90;;;4.93;;
13855;SDS011;6998;53.608;9.958;2022-10-13T02:27:56;8.57;;;5.37;;
13855;SDS011;6998;53.608;9.958;2022-10-13T02:30:25;7.97;;;5.27;;
13855;SDS011;6998;53.608;9.958;2022-10-13T02:32:53;8.40;;;5.30;;
13855;SDS011;6998;53.608;9.958;2022-10-13T02:35:21;12.47;;;5.93;;
13855;SDS011;6998;53.608;9.958;2022-10-13T02:37:49;10.23;;;5.83;;
13855;SDS011;6998;53.608;9.958;2022-10-13T02:40:16;11.53;;;5.60;;
13855;SDS011;6998;53.608;9.958;2022-10-13T02:42:42;8.60;;;5.67;;
13855;SDS011;6998;53.608;9.958;2022-10-13T02:45:09;8.30;;;5.27;;
13855;SDS011;6998;53.608;9.958;2022-10-13T02:47:37;12.03;;;6.33;;
13855;SDS011;6998;53.608;9.958;2022-10-13T02:50:05;9.97;;;5.83;;
13855;SDS011;6998;53.608;9.958;2022-10-13T02:52:33;8.93;;;5.67;;
13855;SDS011;6998;53.608;9.958;2022-10-13T02:55:00;8.90;;;5.63;;
13855;SDS011;6998;53.608;9.958;2022-10-13T02:57:27;11.23;;;5.80;;
13855;SDS011;6998;53.608;9.958;2022-10-13T02:59:54;8.83;;;5.70;;
13855;SDS011;6998;53.608;9.958;2022-10-13T03:02:21;10.60;;;6.07;;
13855;SDS011;6998;53.608;9.958;2022-10-13T03:04:48;9.03;;;5.97;;
13855;SDS011;6998;53.608;9.958;2022-10-13T03:07:15;9.47;;;5.80;;
13855;SDS011;6998;53.608;9.958;2022-10-13T03:09:43;7.20;;;5.20;;
13855;SDS011;6998;53.608;9.958;2022-10-13T03:12:09;10.07;;;5.50;;
13855;SDS011;6998;53.608;9.958;2022-10-13T03:14:36;9.13;;;5.73;;
13855;SDS011;6998;53.608;9.958;2022-10-13T03:17:03;11.23;;;5.77;;
13855;SDS011;6998;53.608;9.958;2022-10-13T03:19:30;9.33;;;6.03;;
13855;SDS011;6998;53.608;9.958;2022-10-13T03:21:57;11.33;;;6.27;;
13855;SDS011;6998;53.608;9.958;2022-10-13T03:24:23;9.97;;;5.87;;
13855;SDS011;6998;53.608;9.958;2022-10-13T03:26:51;9.93;;;5.47;;
13855;SDS011;6998;53.608;9.958;2022-10-13T03:29:18;7.87;;;5.30;;
13855;SDS011;6998;53.608;9.958;2022-10-13T03:31:46;11.43;;;5.70;;
13855;SDS011;6998;53.608;9.958;2022-10-13T03:34:14;8.13;;;5.23;;
13855;SDS011;6998;53.608;9.958;2022-10-13T03:36:44;9.60;;;5.07;;
13855;SDS011;6998;53.608;9.958;2022-10-13T03:39:10;9.03;;;5.07;;
13855;SDS011;6998;53.608;9.958;2022-10-13T03:41:37;9.10;;;5.13;;
13855;SDS011;6998;53.608;9.958;2022-10-13T03:44:05;7.80;;;5.40;;
13855;SDS011;6998;53.608;9.958;2022-10-13T03:46:32;8.23;;;5.10;;
13855;SDS011;6998;53.608;9.958;2022-10-13T03:48:59;7.60;;;5.33;;
13855;SDS011;6998;53.608;9.958;2022-10-13T03:51:26;6.53;;;5.10;;
13855;SDS011;6998;53.608;9.958;2022-10-13T03:53:52;9.43;;;5.00;;
13855;SDS011;6998;53.608;9.958;2022-10-13T03:56:20;7.50;;;5.23;;
13855;SDS011;6998;53.608;9.958;2022-10-13T03:58:49;7.13;;;4.57;;
13855;SDS011;6998;53.608;9.958;2022-10-13T04:01:19;11.03;;;4.90;;
13855;SDS011;6998;53.608;9.958;2022-10-13T04:03:47;8.07;;;5.40;;
13855;SDS011;6998;53.608;9.958;2022-10-13T04:06:14;8.07;;;5.93;;
13855;SDS011;6998;53.608;9.958;2022-10-13T04:08:41;8.50;;;5.53;;
13855;SDS011;6998;53.608;9.958;2022-10-13T04:11:09;10.93;;;6.00;;
13855;SDS011;6998;53.608;9.958;2022-10-13T04:13:37;9.10;;;5.00;;
13855;SDS011;6998;53.608;9.958;2022-10-13T04:16:04;7.07;;;5.73;;
13855;SDS011;6998;53.608;9.958;2022-10-13T04:18:34;5.40;;;4.50;;
13855;SDS011;6998;53.608;9.958;2022-10-13T04:21:01;9.90;;;5.63;;
13855;SDS011;6998;53.608;9.958;2022-10-13T04:23:32;10.10;;;5.63;;
13855;SDS011;6998;53.608;9.958;2022-10-13T04:25:58;9.77;;;5.30;;
13855;SDS011;6998;53.608;9.958;2022-10-13T04:28:25;10.10;;;5.53;;
13855;SDS011;6998;53.608;9.958;2022-10-13T04:30:52;7.33;;;5.23;;
13855;SDS011;6998;53.608;9.958;2022-10-13T04:33:18;8.53;;;4.97;;
13855;SDS011;6998;53.608;9.958;2022-10-13T04:35:46;9.63;;;5.40;;
13855;SDS011;6998;53.608;9.958;2022-10-13T04:38:13;7.47;;;5.23;;
13855;SDS011;6998;53.608;9.958;2022-10-13T04:40:40;9.93;;;5.57;;
13855;SDS011;6998;53.608;9.958;2022-10-13T04:43:06;8.30;;;5.70;;
13855;SDS011;6998;53.608;9.958;2022-10-13T04:45:33;7.47;;;5.43;;
13855;SDS011;6998;53.608;9.958;2022-10-13T04:48:00;10.93;;;5.70;;
13855;SDS011;6998;53.608;9.958;2022-10-13T04:50:26;9.47;;;5.70;;
13855;SDS011;6998;53.608;9.958;2022-10-13T04:52:55;9.17;;;5.37;;
13855;SDS011;6998;53.608;9.958;2022-10-13T04:55:21;9.77;;;6.03;;
13855;SDS011;6998;53.608;9.958;2022-10-13T04:57:48;9.03;;;6.63;;
13855;SDS011;6998;53.608;9.958;2022-10-13T05:00:15;7.30;;;5.90;;
13855;SDS011;6998;53.608;9.958;2022-10-13T05:02:42;9.80;;;6.00;;
13855;SDS011;6998;53.608;9.958;2022-10-13T05:05:09;9.60;;;6.20;;
13855;SDS011;6998;53.608;9.958;2022-10-13T05:07:36;10.23;;;6.30;;
13855;SDS011;6998;53.608;9.958;2022-10-13T05:10:04;10.87;;;6.53;;
13855;SDS011;6998;53.608;9.958;2022-10-13T05:12:31;12.57;;;6.93;;
13855;SDS011;6998;53.608;9.958;2022-10-13T05:14:58;9.37;;;6.07;;
13855;SDS011;6998;53.608;9.958;2022-10-13T05:17:24;8.67;;;6.17;;
13855;SDS011;6998;53.608;9.958;2022-10-13T05:19:51;9.77;;;7.03;;
13855;SDS011;6998;53.608;9.958;2022-10-13T05:22:18;9.97;;;7.20;;
13855;SDS011;6998;53.608;9.958;2022-10-13T05:24:45;9.73;;;6.43;;
13855;SDS011;6998;53.608;9.958;2022-10-13T05:27:13;7.30;;;6.20;;
13855;SDS011;6998;53.608;9.958;2022-10-13T05:29:40;10.43;;;6.17;;
13855;SDS011;6998;53.608;9.958;2022-10-13T05:32:07;10.10;;;6.60;;
13855;SDS011;6998;53.608;9.958;2022-10-13T05:34:33;8.93;;;6.67;;
13855;SDS011;6998;53.608;9.958;2022-10-13T05:37:00;10.60;;;6.90;;
13855;SDS011;6998;53.608;9.958;2022-10-13T05:39:27;7.43;;;6.70;;
13855;SDS011;6998;53.608;9.958;2022-10-13T05:41:54;10.30;;;7.00;;
13855;SDS011;6998;53.608;9.958;2022-10-13T05:44:22;12.83;;;7.10;;
13855;SDS011;6998;53.608;9.958;2022-10-13T05:46:49;14.97;;;7.13;;
13855;SDS011;6998;53.608;9.958;2022-10-13T05:49:15;14.80;;;7.63;;
13855;SDS011;6998;53.608;9.958;2022-10-13T05:51:43;12.33;;;7.53;;
13855;SDS011;6998;53.608;9.958;2022-10-13T05:54:12;10.37;;;7.10;;
13855;SDS011;6998;53.608;9.958;2022-10-13T05:56:43;9.67;;;7.03;;
13855;SDS011;6998;53.608;9.958;2022-10-13T05:59:15;9.37;;;6.97;;
13855;SDS011;6998;53.608;9.958;2022-10-13T06:01:45;10.60;;;6.53;;
13855;SDS011;6998;53.608;9.958;2022-10-13T06:04:13;8.80;;;7.60;;
13855;SDS011;6998;53.608;9.958;2022-10-13T06:06:44;9.43;;;7.73;;
13855;SDS011;6998;53.608;9.958;2022-10-13T06:09:11;12.93;;;8.40;;
13855;SDS011;6998;53.608;9.958;2022-10-13T06:11:37;11.87;;;7.43;;
13855;SDS011;6998;53.608;9.958;2022-10-13T06:14:04;13.43;;;7.67;;
13855;SDS011;6998;53.608;9.958;2022-10-13T06:16:33;11.70;;;8.10;;
13855;SDS011;6998;53.608;9.958;2022-10-13T06:19:02;15.80;;;8.93;;
13855;SDS011;6998;53.608;9.958;2022-10-13T06:21:29;12.13;;;7.90;;
13855;SDS011;6998;53.608;9.958;2022-10-13T06:23:55;11.47;;;7.80;;
13855;SDS011;6998;53.608;9.958;2022-10-13T06:26:22;10.07;;;8.07;;
13855;SDS011;6998;53.608;9.958;2022-10-13T06:28:49;12.93;;;7.53;;
13855;SDS011;6998;53.608;9.958;2022-10-13T06:31:15;15.97;;;9.13;;
13855;SDS011;6998;53.608;9.958;2022-10-13T06:33:42;11.97;;;7.93;;
13855;SDS011;6998;53.608;9.958;2022-10-13T06:36:10;13.93;;;8.60;;
13855;SDS011;6998;53.608;9.958;2022-10-13T06:38:37;14.90;;;9.00;;
13855;SDS011;6998;53.608;9.958;2022-10-13T06:41:04;15.83;;;8.80;;
13855;SDS011;6998;53.608;9.958;2022-10-13T06:43:31;14.33;;;8.40;;
13855;SDS011;6998;53.608;9.958;2022-10-13T06:45:57;13.30;;;8.77;;
13855;SDS011;6998;53.608;9.958;2022-10-13T06:48:24;18.73;;;11.47;;
13855;SDS011;6998;53.608;9.958;2022-10-13T06:50:51;16.93;;;10.67;;
13855;SDS011;6998;53.608;9.958;2022-10-13T06:53:20;21.43;;;12.70;;
13855;SDS011;6998;53.608;9.958;2022-10-13T06:55:46;16.97;;;11.33;;
13855;SDS011;6998;53.608;9.958;2022-10-13T06:58:13;16.47;;;10.70;;
13855;SDS011;6998;53.608;9.958;2022-10-13T07:00:40;15.20;;;10.73;;
13855;SDS011;6998;53.608;9.958;2022-10-13T07:03:09;15.53;;;9.73;;
13855;SDS011;6998;53.608;9.958;2022-10-13T07:05:36;14.07;;;9.77;;
13855;SDS011;6998;53.608;9.958;2022-10-13T07:08:03;15.83;;;10.30;;
13855;SDS011;6998;53.608;9.958;2022-10-13T07:10:31;20.50;;;11.40;;
13855;SDS011;6998;53.608;9.958;2022-10-13T07:12:58;18.20;;;11.20;;
13855;SDS011;6998;53.608;9.958;2022-10-13T07:15:25;20.57;;;11.93;;
13855;SDS011;6998;53.608;9.958;2022-10-13T07:17:52;20.23;;;11.33;;
13855;SDS011;6998;53.608;9.958;2022-10-13T07:20:19;14.93;;;10.20;;
13855;SDS011;6998;53.608;9.958;2022-10-13T07:22:47;20.27;;;11.63;;
13855;SDS011;6998;53.608;9.958;2022-10-13T07:25:14;20.83;;;11.87;;
13855;SDS011;6998;53.608;9.958;2022-10-13T07:27:42;16.13;;;9.95;;
13855;SDS011;6998;53.608;9.958;2022-10-13T07:30:09;18.17;;;10.50;;
13855;SDS011;6998;53.608;9.958;2022-10-13T07:32:37;23.75;;;11.05;;
13855;SDS011;6998;53.608;9.958;2022-10-13T07:35:06;24.50;;;11.80;;
13855;SDS011;6998;53.608;9.958;2022-10-13T07:37:33;18.60;;;10.13;;
13855;SDS011;6998;53.608;9.958;2022-10-13T07:40:00;21.83;;;11.50;;
13855;SDS011;6998;53.608;9.958;2022-10-13T07:42:26;17.10;;;10.05;;
13855;SDS011;6998;53.608;9.958;2022-10-13T07:44:54;17.48;;;9.75;;
13855;SDS011;6998;53.608;9.958;2022-10-13T07:47:21;20.98;;;10.73;;
13855;SDS011;6998;53.608;9.958;2022-10-13T07:49:48;20.88;;;11.38;;
13855;SDS011;6998;53.608;9.958;2022-10-13T07:52:15;17.65;;;11.77;;
13855;SDS011;6998;53.608;9.958;2022-10-13T07:54:42;18.08;;;11.45;;
13855;SDS011;6998;53.608;9.958;2022-10-13T07:57:09;19.63;;;12.05;;
13855;SDS011;6998;53.608;9.958;2022-10-13T07:59:36;18.85;;;12.13;;
13855;SDS011;6998;53.608;9.958;2022-10-13T08:02:04;19.25;;;12.63;;
13855;SDS011;6998;53.608;9.958;2022-10-13T08:04:33;17.00;;;10.45;;
13855;SDS011;6998;53.608;9.958;2022-10-13T08:07:00;14.23;;;9.45;;
13855;SDS011;6998;53.608;9.958;2022-10-13T08:09:28;16.55;;;10.55;;
13855;SDS011;6998;53.608;9.958;2022-10-13T08:11:54;15.70;;;10.45;;
13855;SDS011;6998;53.608;9.958;2022-10-13T08:14:21;19.08;;;10.55;;
13855;SDS011;6998;53.608;9.958;2022-10-13T08:16:48;19.90;;;11.40;;
13855;SDS011;6998;53.608;9.958;2022-10-13T08:19:16;20.35;;;11.43;;
13855;SDS011;6998;53.608;9.958;2022-10-13T08:21:44;18.48;;;10.90;;
13855;SDS011;6998;53.608;9.958;2022-10-13T08:24:12;17.52;;;11.30;;
13855;SDS011;6998;53.608;9.958;2022-10-13T08:26:40;24.10;;;11.75;;
13855;SDS011;6998;53.608;9.958;2022-10-13T08:29:07;19.73;;;11.50;;
13855;SDS011;6998;53.608;9.958;2022-10-13T08:31:34;15.88;;;11.65;;
13855;SDS011;6998;53.608;9.958;2022-10-13T08:34:00;17.63;;;11.52;;
13855;SDS011;6998;53.608;9.958;2022-10-13T08:36:28;15.43;;;11.65;;
13855;SDS011;6998;53.608;9.958;2022-10-13T08:38:55;17.80;;;11.82;;
13855;SDS011;6998;53.608;9.958;2022-10-13T08:41:23;23.08;;;13.05;;
13855;SDS011;6998;53.608;9.958;2022-10-13T08:43:52;17.42;;;12.18;;
13855;SDS011;6998;53.608;9.958;2022-10-13T08:46:22;20.75;;;11.23;;
13855;SDS011;6998;53.608;9.958;2022-10-13T08:48:53;16.95;;;11.88;;
13855;SDS011;6998;53.608;9.958;2022-10-13T08:51:21;17.70;;;11.93;;
13855;SDS011;6998;53.608;9.958;2022-10-13T08:53:49;18.08;;;12.20;;
13855;SDS011;6998;53.608;9.958;2022-10-13T08:56:17;21.23;;;12.27;;
13855;SDS011;6998;53.608;9.958;2022-10-13T08:58:47;19.45;;;11.88;;
13855;SDS011;6998;53.608;9.958;2022-10-13T09:01:16;18.23;;;12.45;;
13855;SDS011;6998;53.608;9.958;2022-10-13T09:03:49;17.77;;;11.80;;
13855;SDS011;6998;53.608;9.958;2022-10-13T09:06:18;19.58;;;11.18;;
13855;SDS011;6998;53.608;9.958;2022-10-13T09:08:53;21.40;;;12.35;;
13855;SDS011;6998;53.608;9.958;2022-10-13T09:11:24;18.38;;;12.73;;
13855;SDS011;6998;53.608;9.958;2022-10-13T09:13:54;20.48;;;12.95;;
13855;SDS011;6998;53.608;9.958;2022-10-13T09:16:28;18.70;;;13.30;;
13855;SDS011;6998;53.608;9.958;2022-10-13T09:19:10;20.88;;;12.60;;
13855;SDS011;6998;53.608;9.958;2022-10-13T09:21:40;22.98;;;12.88;;
13855;SDS011;6998;53.608;9.958;2022-10-13T09:24:11;21.83;;;12.65;;
13855;SDS011;6998;53.608;9.958;2022-10-13T09:26:40;19.05;;;13.27;;
13855;SDS011;6998;53.608;9.958;2022-10-13T09:29:08;20.60;;;12.68;;
13855;SDS011;6998;53.608;9.958;2022-10-13T09:31:36;19.63;;;12.60;;
13855;SDS011;6998;53.608;9.958;2022-10-13T09:34:08;22.77;;;13.35;;
13855;SDS011;6998;53.608;9.958;2022-10-13T09:36:53;22.25;;;13.63;;
13855;SDS011;6998;53.608;9.958;2022-10-13T09:39:23;15.73;;;12.25;;
13855;SDS011;6998;53.608;9.958;2022-10-13T09:41:50;16.88;;;12.35;;
13855;SDS011;6998;53.608;9.958;2022-10-13T09:44:18;22.38;;;15.18;;
13855;SDS011;6998;53.608;9.958;2022-10-13T09:46:55;18.88;;;13.52;;
13855;SDS011;6998;53.608;9.958;2022-10-13T09:49:27;21.33;;;14.88;;
13855;SDS011;6998;53.608;9.958;2022-10-13T09:52:02;18.02;;;14.07;;
13855;SDS011;6998;53.608;9.958;2022-10-13T09:54:41;20.17;;;14.35;;
13855;SDS011;6998;53.608;9.958;2022-10-13T09:57:12;19.60;;;14.23;;
13855;SDS011;6998;53.608;9.958;2022-10-13T09:59:47;26.35;;;14.27;;
13855;SDS011;6998;53.608;9.958;2022-10-13T10:02:23;22.35;;;14.32;;
13855;SDS011;6998;53.608;9.958;2022-10-13T10:04:55;16.30;;;13.13;;
13855;SDS011;6998;53.608;9.958;2022-10-13T10:07:27;19.33;;;12.38;;
13855;SDS011;6998;53.608;9.958;2022-10-13T10:09:59;17.98;;;13.52;;
13855;SDS011;6998;53.608;9.958;2022-10-13T10:12:30;23.98;;;14.00;;
13855;SDS011;6998;53.608;9.958;2022-10-13T10:15:01;17.85;;;13.35;;
13855;SDS011;6998;53.608;9.958;2022-10-13T10:17:51;18.77;;;14.20;;
13855;SDS011;6998;53.608;9.958;2022-10-13T10:20:30;19.80;;;14.35;;
13855;SDS011;6998;53.608;9.958;2022-10-13T10:23:16;19.83;;;13.82;;
13855;SDS011;6998;53.608;9.958;2022-10-13T10:25:50;19.52;;;14.07;;
13855;SDS011;6998;53.608;9.958;2022-10-13T10:28:28;22.35;;;14.18;;
13855;SDS011;6998;53.608;9.958;2022-10-13T10:31:05;21.77;;;13.45;;
13855;SDS011;6998;53.608;9.958;2022-10-13T10:33:44;18.95;;;14.68;;
13855;SDS011;6998;53.608;9.958;2022-10-13T10:36:20;18.08;;;14.27;;
13855;SDS011;6998;53.608;9.958;2022-10-13T10:38:53;19.48;;;13.77;;
13855;SDS011;6998;53.608;9.958;2022-10-13T10:41:33;17.15;;;13.43;;
13855;SDS011;6998;53.608;9.958;2022-10-13T10:44:06;23.05;;;13.35;;
13855;SDS011;6998;53.608;9.958;2022-10-13T10:46:35;19.58;;;14.38;;
13855;SDS011;6998;53.608;9.958;2022-10-13T10:49:09;16.33;;;13.43;;
13855;SDS011;6998;53.608;9.958;2022-10-13T10:51:42;21.80;;;14.25;;
13855;SDS011;6998;53.608;9.958;2022-10-13T10:54:15;19.63;;;13.18;;
13855;SDS011;6998;53.608;9.958;2022-10-13T10:56:50;17.20;;;13.35;;
13855;SDS011;6998;53.608;9.958;2022-10-13T10:59:22;19.27;;;13.52;;
13855;SDS011;6998;53.608;9.958;2022-10-13T11:02:10;17.38;;;12.85;;
13855;SDS011;6998;53.608;9.958;2022-10-13T11:04:55;18.10;;;12.68;;
13855;SDS011;6998;53.608;9.958;2022-10-13T11:10:20;16.33;;;12.95;;
13855;SDS011;6998;53.608;9.958;2022-10-13T11:15:52;19.75;;;13.25;;
13855;SDS011;6998;53.608;9.958;2022-10-13T11:21:23;19.05;;;14.27;;
13855;SDS011;6998;53.608;9.958;2022-10-13T11:23:50;14.73;;;13.13;;
13855;SDS011;6998;53.608;9.958;2022-10-13T11:29:18;23.75;;;12.63;;
13855;SDS011;6998;53.608;9.958;2022-10-13T11:32:10;19.15;;;13.73;;
13855;SDS011;6998;53.608;9.958;2022-10-13T11:35:22;17.73;;;12.88;;
13855;SDS011;6998;53.608;9.958;2022-10-13T11:40:56;20.10;;;11.88;;
13855;SDS011;6998;53.608;9.958;2022-10-13T11:43:36;17.30;;;12.18;;
13855;SDS011;6998;53.608;9.958;2022-10-13T11:46:24;15.60;;;12.02;;
13855;SDS011;6998;53.608;9.958;2022-10-13T11:52:02;15.32;;;11.52;;
13855;SDS011;6998;53.608;9.958;2022-10-13T11:54:37;18.55;;;11.57;;
13855;SDS011;6998;53.608;9.958;2022-10-13T11:57:16;17.15;;;11.98;;
13855;SDS011;6998;53.608;9.958;2022-10-13T11:59:44;18.98;;;12.20;;
13855;SDS011;6998;53.608;9.958;2022-10-13T12:02:13;18.02;;;11.30;;
13855;SDS011;6998;53.608;9.958;2022-10-13T12:04:41;17.08;;;11.80;;
13855;SDS011;6998;53.608;9.958;2022-10-13T12:07:12;16.15;;;10.98;;
13855;SDS011;6998;53.608;9.958;2022-10-13T12:09:47;18.88;;;11.25;;
13855;SDS011;6998;53.608;9.958;2022-10-13T12:12:15;14.77;;;10.90;;
13855;SDS011;6998;53.608;9.958;2022-10-13T12:14:44;16.70;;;11.90;;
13855;SDS011;6998;53.608;9.958;2022-10-13T12:17:18;13.73;;;10.63;;
13855;SDS011;6998;53.608;9.958;2022-10-13T12:19:48;14.30;;;11.52;;
13855;SDS011;6998;53.608;9.958;2022-10-13T12:22:16;18.35;;;11.15;;
13855;SDS011;6998;53.608;9.958;2022-10-13T12:24:43;16.65;;;11.13;;
13855;SDS011;6998;53.608;9.958;2022-10-13T12:27:22;19.70;;;12.60;;
13855;SDS011;6998;53.608;9.958;2022-10-13T12:29:49;17.15;;;12.98;;
13855;SDS011;6998;53.608;9.958;2022-10-13T12:32:16;16.40;;;11.75;;
13855;SDS011;6998;53.608;9.958;2022-10-13T12:34:45;13.38;;;11.27;;
13855;SDS011;6998;53.608;9.958;2022-10-13T12:37:13;15.38;;;11.75;;
13855;SDS011;6998;53.608;9.958;2022-10-13T12:39:46;16.10;;;11.40;;
13855;SDS011;6998;53.608;9.958;2022-10-13T12:42:13;16.50;;;10.70;;
13855;SDS011;6998;53.608;9.958;2022-10-13T12:44:40;12.93;;;10.95;;
13855;SDS011;6998;53.608;9.958;2022-10-13T12:50:19;20.02;;;11.73;;
13855;SDS011;6998;53.608;9.958;2022-10-13T12:52:48;16.02;;;11.23;;
13855;SDS011;6998;53.608;9.958;2022-10-13T12:55:17;18.30;;;11.90;;
13855;SDS011;6998;53.608;9.958;2022-10-13T12:57:46;15.40;;;11.77;;
13855;SDS011;6998;53.608;9.958;2022-10-13T13:00:21;17.23;;;11.80;;
13855;SDS011;6998;53.608;9.958;2022-10-13T13:02:51;19.92;;;11.60;;
13855;SDS011;6998;53.608;9.958;2022-10-13T13:05:28;18.13;;;11.23;;
13855;SDS011;6998;53.608;9.958;2022-10-13T13:07:58;19.38;;;11.45;;
13855;SDS011;6998;53.608;9.958;2022-10-13T13:10:25;15.68;;;11.43;;
13855;SDS011;6998;53.608;9.958;2022-10-13T13:12:53;18.95;;;11.95;;
13855;SDS011;6998;53.608;9.958;2022-10-13T13:15:31;18.88;;;11.40;;
13855;SDS011;6998;53.608;9.958;2022-10-13T13:21:05;16.88;;;11.88;;
13855;SDS011;6998;53.608;9.958;2022-10-13T13:23:34;19.55;;;11.88;;
13855;SDS011;6998;53.608;9.958;2022-10-13T13:26:01;15.90;;;10.88;;
13855;SDS011;6998;53.608;9.958;2022-10-13T13:28:32;17.95;;;12.43;;
13855;SDS011;6998;53.608;9.958;2022-10-13T13:30:59;20.95;;;11.35;;
13855;SDS011;6998;53.608;9.958;2022-10-13T13:33:25;12.90;;;10.00;;
13855;SDS011;6998;53.608;9.958;2022-10-13T13:35:52;14.45;;;10.93;;
13855;SDS011;6998;53.608;9.958;2022-10-13T13:38:19;15.77;;;11.38;;
13855;SDS011;6998;53.608;9.958;2022-10-13T13:40:47;15.70;;;10.65;;
13855;SDS011;6998;53.608;9.958;2022-10-13T13:43:14;14.68;;;10.93;;
13855;SDS011;6998;53.608;9.958;2022-10-13T13:45:40;14.73;;;10.20;;
13855;SDS011;6998;53.608;9.958;2022-10-13T13:48:07;14.07;;;10.75;;
13855;SDS011;6998;53.608;9.958;2022-10-13T13:50:36;14.25;;;9.75;;
13855;SDS011;6998;53.608;9.958;2022-10-13T13:53:03;17.75;;;11.43;;
13855;SDS011;6998;53.608;9.958;2022-10-13T13:55:30;16.60;;;10.52;;
13855;SDS011;6998;53.608;9.958;2022-10-13T13:57:58;17.90;;;10.90;;
13855;SDS011;6998;53.608;9.958;2022-10-13T14:00:25;15.93;;;10.60;;
13855;SDS011;6998;53.608;9.958;2022-10-13T14:02:52;15.30;;;9.57;;
13855;SDS011;6998;53.608;9.958;2022-10-13T14:05:20;16.75;;;11.05;;
13855;SDS011;6998;53.608;9.958;2022-10-13T14:07:47;13.90;;;10.50;;
13855;SDS011;6998;53.608;9.958;2022-10-13T14:10:14;19.88;;;10.45;;
13855;SDS011;6998;53.608;9.958;2022-10-13T14:12:41;15.38;;;10.70;;
13855;SDS011;6998;53.608;9.958;2022-10-13T14:15:09;17.08;;;10.15;;
13855;SDS011;6998;53.608;9.958;2022-10-13T14:17:36;17.08;;;11.27;;
13855;SDS011;6998;53.608;9.958;2022-10-13T14:20:03;15.60;;;10.00;;
13855;SDS011;6998;53.608;9.958;2022-10-13T14:22:30;19.73;;;10.50;;
13855;SDS011;6998;53.608;9.958;2022-10-13T14:24:57;12.07;;;8.93;;
13855;SDS011;6998;53.608;9.958;2022-10-13T14:27:24;12.23;;;9.05;;
13855;SDS011;6998;53.608;9.958;2022-10-13T14:29:50;18.35;;;11.13;;
13855;SDS011;6998;53.608;9.958;2022-10-13T14:32:18;16.30;;;10.18;;
13855;SDS011;6998;53.608;9.958;2022-10-13T14:34:45;14.57;;;9.60;;
13855;SDS011;6998;53.608;9.958;2022-10-13T14:37:12;14.27;;;9.30;;
13855;SDS011;6998;53.608;9.958;2022-10-13T14:39:38;16.58;;;9.82;;
13855;SDS011;6998;53.608;9.958;2022-10-13T14:42:05;14.65;;;10.82;;
13855;SDS011;6998;53.608;9.958;2022-10-13T14:44:32;14.63;;;8.98;;
13855;SDS011;6998;53.608;9.958;2022-10-13T14:46:59;14.70;;;9.13;;
13855;SDS011;6998;53.608;9.958;2022-10-13T14:49:27;15.88;;;9.70;;
13855;SDS011;6998;53.608;9.958;2022-10-13T14:51:53;12.30;;;9.93;;
13855;SDS011;6998;53.608;9.958;2022-10-13T14:54:20;17.98;;;9.50;;
13855;SDS011;6998;53.608;9.958;2022-10-13T14:56:47;18.00;;;10.43;;
13855;SDS011;6998;53.608;9.958;2022-10-13T14:59:13;12.55;;;9.68;;
13855;SDS011;6998;53.608;9.958;2022-10-13T15:01:40;13.27;;;9.65;;
13855;SDS011;6998;53.608;9.958;2022-10-13T15:04:07;17.90;;;10.27;;
13855;SDS011;6998;53.608;9.958;2022-10-13T15:06:36;15.98;;;11.02;;
13855;SDS011;6998;53.608;9.958;2022-10-13T15:09:04;14.00;;;10.57;;
13855;SDS011;6998;53.608;9.958;2022-10-13T15:11:31;17.02;;;10.18;;
13855;SDS011;6998;53.608;9.958;2022-10-13T15:13:58;15.15;;;9.15;;
13855;SDS011;6998;53.608;9.958;2022-10-13T15:16:25;18.45;;;10.60;;
13855;SDS011;6998;53.608;9.958;2022-10-13T15:18:53;16.27;;;8.68;;
13855;SDS011;6998;53.608;9.958;2022-10-13T15:21:21;12.63;;;8.88;;
13855;SDS011;6998;53.608;9.958;2022-10-13T15:23:49;18.30;;;9.25;;
13855;SDS011;6998;53.608;9.958;2022-10-13T15:26:17;12.70;;;9.13;;
13855;SDS011;6998;53.608;9.958;2022-10-13T15:28:45;10.73;;;8.30;;
13855;SDS011;6998;53.608;9.958;2022-10-13T15:31:14;11.73;;;8.05;;